Time;durP1;ratioP1;P1;durP2;ratioP2;P2;SDS_P1;SDS_P2;PMS_P1;PMS_P2;Temp;Humidity;BMP_temperature;BMP_pressure;BME280_temperature;BME280_humidity;BME280_pressure;Samples;Min_cycle;Max_cycle;Signal;HPM_P1;HPM_P2
2022/10/16 00:01:12;;;;;;;1999.90;999.90;;;17.20;99.90;;;;;;4976793;28;20081;-85
2022/10/16 00:03:39;;;;;;;1999.90;999.90;;;17.20;99.90;;;;;;4974812;28;20074;-85
2022/10/16 00:06:05;;;;;;;1999.90;999.90;;;17.20;99.90;;;;;;4976550;28;20031;-85
2022/10/16 00:08:31;;;;;;;1999.90;999.90;;;17.20;99.90;;;;;;4974913;28;20032;-86
2022/10/16 00:11:02;;;;;;;1999.90;999.90;;;17.20;99.90;;;;;;4976427;28;20042;-85
2022/10/16 00:13:29;;;;;;;1999.90;999.90;;;17.20;99.90;;;;;;4976003;28;20073;-83
2022/10/16 00:15:56;;;;;;;1999.90;999.90;;;17.20;99.90;;;;;;4974594;28;20041;-84
2022/10/16 00:18:22;;;;;;;1999.90;999.90;;;17.20;99.90;;;;;;4976354;28;20398;-86
2022/10/16 00:20:47;;;;;;;1999.90;999.90;;;17.20;99.90;;;;;;4973955;28;20030;-85
2022/10/16 00:23:13;;;;;;;1999.90;999.90;;;17.30;99.90;;;;;;4972049;28;20023;-86
2022/10/16 00:25:38;;;;;;;1999.90;999.90;;;17.30;99.90;;;;;;4970711;28;20426;-85
2022/10/16 00:28:04;;;;;;;1999.90;999.90;;;17.20;99.90;;;;;;4972212;28;20098;-85
2022/10/16 00:30:30;;;;;;;1999.90;999.90;;;17.30;99.90;;;;;;4971997;28;20089;-85
2022/10/16 00:32:56;;;;;;;1999.90;999.90;;;17.30;99.90;;;;;;4972184;28;20061;-85
2022/10/16 00:35:21;;;;;;;1999.90;999.90;;;17.30;99.90;;;;;;4972248;28;20031;-85
2022/10/16 00:37:47;;;;;;;1999.90;999.90;;;17.30;99.90;;;;;;4971752;28;20078;-85
2022/10/16 00:40:12;;;;;;;1999.90;999.90;;;17.30;99.90;;;;;;4971188;28;20382;-86
2022/10/16 00:42:38;;;;;;;1999.90;999.90;;;17.30;99.90;;;;;;4975880;28;20019;-85
2022/10/16 00:45:04;;;;;;;1999.90;999.90;;;17.30;99.90;;;;;;4977436;28;20031;-84
2022/10/16 00:47:45;;;;;;;1999.90;999.90;;;17.30;99.90;;;;;;4972458;28;20030;-85
2022/10/16 00:50:13;;;;;;;1999.90;999.90;;;17.30;99.90;;;;;;4970760;28;20402;-86
2022/10/16 00:52:44;;;;;;;1999.90;999.90;;;17.30;99.90;;;;;;4971989;28;20027;-86
2022/10/16 00:55:10;;;;;;;1999.90;999.90;;;17.30;99.90;;;;;;4970214;28;20076;-86
2022/10/16 00:57:37;;;;;;;1999.90;999.90;;;17.30;99.90;;;;;;4970016;28;20050;-85
2022/10/16 01:00:05;;;;;;;1999.90;999.90;;;17.30;99.90;;;;;;4970675;28;20414;-85
2022/10/16 01:02:31;;;;;;;1999.90;999.90;;;17.20;99.90;;;;;;4970667;28;20046;-85
2022/10/16 01:04:57;;;;;;;1999.90;999.90;;;17.10;99.90;;;;;;4970596;28;20027;-85
2022/10/16 01:07:53;;;;;;;1999.90;999.90;;;17.10;99.90;;;;;;4974710;28;20034;-85
2022/10/16 01:10:34;;;;;;;1999.90;999.90;;;17.00;99.90;;;;;;4975244;28;20089;-85
2022/10/16 01:13:23;;;;;;;1999.90;999.90;;;17.00;99.90;;;;;;4971975;28;20027;-85
2022/10/16 01:15:48;;;;;;;1999.90;999.90;;;16.90;99.90;;;;;;4972239;28;20483;-85
2022/10/16 01:18:25;;;;;;;1999.90;999.90;;;16.80;99.90;;;;;;4974631;28;20026;-85
2022/10/16 01:20:56;;;;;;;1999.90;999.90;;;16.80;99.90;;;;;;4974268;28;20034;-86
2022/10/16 01:23:25;;;;;;;1999.90;999.90;;;16.80;99.90;;;;;;4974252;28;20082;-85
2022/10/16 01:26:06;;;;;;;1999.90;999.90;;;16.80;99.90;;;;;;4966010;28;20032;-85
2022/10/16 01:28:38;;;;;;;1999.90;999.90;;;16.70;99.90;;;;;;4967863;28;20041;-85
2022/10/16 01:31:04;;;;;;;1999.90;999.90;;;16.80;99.90;;;;;;4973678;28;20030;-85
2022/10/16 01:33:45;;;;;;;1999.90;999.90;;;16.70;99.90;;;;;;4973001;28;20041;-85
2022/10/16 01:36:15;;;;;;;1999.90;999.90;;;16.70;99.90;;;;;;4974856;28;20039;-84
2022/10/16 01:38:44;;;;;;;1999.90;999.90;;;16.70;99.90;;;;;;4973775;28;20803;-85
2022/10/16 01:41:18;;;;;;;1999.90;999.90;;;16.70;99.90;;;;;;4969728;28;20023;-84
2022/10/16 01:43:49;;;;;;;1999.90;999.90;;;16.70;99.90;;;;;;4970710;28;20070;-85
2022/10/16 01:46:19;;;;;;;1999.90;999.90;;;16.70;99.90;;;;;;4970300;28;20062;-84
2022/10/16 01:48:46;;;;;;;1999.90;999.90;;;16.60;99.90;;;;;;4969806;28;20458;-85
2022/10/16 01:51:16;;;;;;;1999.90;999.90;;;16.70;99.90;;;;;;4957504;28;20031;-84
2022/10/16 01:53:46;;;;;;;1999.90;999.90;;;16.70;99.90;;;;;;4974564;28;20026;-84
2022/10/16 01:56:14;;;;;;;1999.90;999.90;;;16.70;99.90;;;;;;4970459;28;20502;-84
2022/10/16 01:59:11;;;;;;;1999.90;999.90;;;16.70;99.90;;;;;;4970876;28;20023;-85
2022/10/16 02:01:40;;;;;;;1999.90;999.90;;;16.70;99.90;;;;;;4957982;28;20057;-85
2022/10/16 02:04:18;;;;;;;1999.90;999.90;;;16.60;99.90;;;;;;4974268;28;20106;-85
2022/10/16 02:06:44;;;;;;;1999.90;999.90;;;16.60;99.90;;;;;;4972021;28;20026;-84
2022/10/16 02:09:10;;;;;;;1999.90;999.90;;;16.60;99.90;;;;;;4972078;28;20034;-85
2022/10/16 02:11:35;;;;;;;1999.90;999.90;;;16.60;99.90;;;;;;4974311;28;20038;-84
2022/10/16 02:14:06;;;;;;;1999.90;999.90;;;16.50;99.90;;;;;;4970667;28;20023;-84
2022/10/16 02:16:41;;;;;;;1999.90;999.90;;;16.50;99.90;;;;;;4972241;28;20066;-85
2022/10/16 02:19:07;;;;;;;1999.90;999.90;;;16.50;99.90;;;;;;4974168;28;20027;-84
2022/10/16 02:21:48;;;;;;;1999.90;999.90;;;16.50;99.90;;;;;;4970392;28;20106;-83
2022/10/16 02:24:35;;;;;;;1999.90;999.90;;;16.50;99.90;;;;;;4955315;28;20027;-85
2022/10/16 02:27:17;;;;;;;1999.90;999.90;;;16.50;99.90;;;;;;4970371;28;20023;-84
2022/10/16 02:29:49;;;;;;;1999.90;999.90;;;16.50;99.90;;;;;;4972648;28;20544;-85
2022/10/16 02:32:20;;;;;;;1999.90;999.90;;;16.50;99.90;;;;;;4973254;28;20444;-85
2022/10/16 02:34:49;;;;;;;1999.90;999.90;;;16.50;99.90;;;;;;4969676;28;20035;-84
2022/10/16 02:37:16;;;;;;;1999.90;999.90;;;16.50;99.90;;;;;;4969753;28;20022;-84
2022/10/16 02:39:41;;;;;;;1999.90;999.90;;;16.50;99.90;;;;;;4969097;28;20054;-83
2022/10/16 02:42:12;;;;;;;1999.90;999.90;;;16.50;99.90;;;;;;4968939;28;20526;-85
2022/10/16 02:44:38;;;;;;;1999.90;999.90;;;16.50;99.90;;;;;;4969051;28;20027;-84
2022/10/16 02:47:04;;;;;;;1999.90;999.90;;;16.50;99.90;;;;;;4968804;28;20031;-84
2022/10/16 02:49:29;;;;;;;1999.90;999.90;;;16.50;99.90;;;;;;4967864;28;20035;-84
2022/10/16 02:51:55;;;;;;;1999.90;999.90;;;16.50;99.90;;;;;;4968636;28;20029;-84
2022/10/16 02:54:20;;;;;;;1999.90;999.90;;;16.50;99.90;;;;;;4969066;28;20066;-85
2022/10/16 02:56:49;;;;;;;1999.90;999.90;;;16.50;99.90;;;;;;4969650;28;20039;-85
2022/10/16 02:59:15;;;;;;;1999.90;999.90;;;16.50;99.90;;;;;;4969292;28;20147;-84
2022/10/16 03:01:41;;;;;;;1999.90;999.90;;;16.50;99.90;;;;;;4969543;28;20027;-85
2022/10/16 03:04:06;;;;;;;1999.90;999.90;;;16.50;99.90;;;;;;4969064;28;20434;-84
2022/10/16 03:06:32;;;;;;;1999.90;999.90;;;16.50;99.90;;;;;;4969273;28;20015;-84
2022/10/16 03:08:57;;;;;;;1999.90;999.90;;;16.50;99.90;;;;;;4970206;28;20031;-84
2022/10/16 03:11:23;;;;;;;1999.90;999.90;;;16.50;99.90;;;;;;4969141;28;20371;-84
2022/10/16 03:13:49;;;;;;;1999.90;999.90;;;16.50;99.90;;;;;;4968358;28;20035;-84
2022/10/16 03:16:14;;;;;;;1999.90;999.90;;;16.50;99.90;;;;;;4972362;28;20031;-85
2022/10/16 03:18:40;;;;;;;1999.90;999.90;;;16.50;99.90;;;;;;4973634;28;20038;-85
2022/10/16 03:21:06;;;;;;;1999.90;999.90;;;16.50;99.90;;;;;;4973051;28;20993;-85
2022/10/16 03:23:31;;;;;;;1999.90;999.90;;;16.50;99.90;;;;;;4972794;28;20038;-84
2022/10/16 03:25:57;;;;;;;1999.90;999.90;;;16.50;99.90;;;;;;4972801;28;20026;-85
2022/10/16 03:28:22;;;;;;;1999.90;999.90;;;16.50;99.90;;;;;;4973433;28;20042;-84
2022/10/16 03:30:48;;;;;;;1999.90;999.90;;;16.50;99.90;;;;;;4977395;28;20101;-85
2022/10/16 03:33:13;;;;;;;1999.90;999.90;;;16.50;99.90;;;;;;4977438;28;20105;-85
2022/10/16 03:35:39;;;;;;;1999.90;999.90;;;16.50;99.90;;;;;;4975203;28;20031;-86
2022/10/16 03:38:05;;;;;;;1999.90;999.90;;;16.50;99.90;;;;;;4976945;28;20449;-84
2022/10/16 03:40:32;;;;;;;1999.90;999.90;;;16.50;99.90;;;;;;4974453;28;20029;-83
2022/10/16 03:42:58;;;;;;;1999.90;999.90;;;16.40;99.90;;;;;;4973566;28;20026;-82
2022/10/16 03:45:24;;;;;;;1999.90;999.90;;;16.40;99.90;;;;;;4973183;28;20461;-82
2022/10/16 03:47:49;;;;;;;1999.90;999.90;;;16.40;99.90;;;;;;4973086;28;20023;-83
2022/10/16 03:50:15;;;;;;;1999.90;999.90;;;16.40;99.90;;;;;;4971860;28;20037;-84
2022/10/16 03:52:41;;;;;;;1999.90;999.90;;;16.30;99.90;;;;;;4972748;28;20041;-82
2022/10/16 03:55:07;;;;;;;1999.90;999.90;;;16.40;99.90;;;;;;4972740;28;20113;-82
2022/10/16 03:57:33;;;;;;;1999.90;999.90;;;16.40;99.90;;;;;;4973581;28;20126;-82
2022/10/16 03:59:58;;;;;;;1999.90;999.90;;;16.40;99.90;;;;;;4976930;28;20102;-81
2022/10/16 04:02:24;;;;;;;1999.90;999.90;;;16.40;99.90;;;;;;4975771;28;20047;-82
2022/10/16 04:04:50;;;;;;;1999.90;999.90;;;16.40;99.90;;;;;;4972243;28;20061;-85
2022/10/16 04:07:18;;;;;;;1999.90;999.90;;;16.40;99.90;;;;;;4973902;28;20023;-80
2022/10/16 04:09:44;;;;;;;1999.90;999.90;;;16.40;99.90;;;;;;4976643;28;20035;-81
2022/10/16 04:12:09;;;;;;;1999.90;999.90;;;16.30;99.90;;;;;;4974424;28;20425;-86
2022/10/16 04:14:35;;;;;;;1999.90;999.90;;;16.30;99.90;;;;;;4972115;28;20470;-81
2022/10/16 04:17:00;;;;;;;1999.90;999.90;;;16.30;99.90;;;;;;4973310;28;20027;-82
2022/10/16 04:19:26;;;;;;;1999.90;999.90;;;16.30;99.90;;;;;;4976078;28;20031;-82
2022/10/16 04:21:52;;;;;;;1999.90;999.90;;;16.30;99.90;;;;;;4975111;28;20486;-82
2022/10/16 04:24:17;;;;;;;1999.90;999.90;;;16.30;99.90;;;;;;4975633;28;20118;-82
2022/10/16 04:26:43;;;;;;;1999.90;999.90;;;16.30;99.90;;;;;;4976114;28;20019;-84
2022/10/16 04:29:08;;;;;;;1999.90;999.90;;;16.30;99.90;;;;;;4972947;28;20027;-84
2022/10/16 04:31:34;;;;;;;1999.90;999.90;;;16.30;99.90;;;;;;4971334;28;20026;-84
2022/10/16 04:34:00;;;;;;;1999.90;999.90;;;16.20;99.90;;;;;;4971788;28;20030;-84
2022/10/16 04:36:25;;;;;;;1999.90;999.90;;;16.30;99.90;;;;;;4971594;28;20023;-84
2022/10/16 04:38:51;;;;;;;1999.90;999.90;;;16.20;99.90;;;;;;4971764;28;20092;-84
2022/10/16 04:41:19;;;;;;;1999.90;999.90;;;16.30;99.90;;;;;;4971210;28;20034;-84
2022/10/16 04:43:45;;;;;;;1999.90;999.90;;;16.30;99.90;;;;;;4971960;28;20027;-83
2022/10/16 04:46:10;;;;;;;1999.90;999.90;;;16.20;99.90;;;;;;4972047;28;20493;-83
2022/10/16 04:48:36;;;;;;;1999.90;999.90;;;16.20;99.90;;;;;;4971614;28;20034;-84
2022/10/16 04:51:01;;;;;;;1999.90;999.90;;;16.20;99.90;;;;;;4970902;28;20030;-85
2022/10/16 04:53:27;;;;;;;1999.90;999.90;;;16.20;99.90;;;;;;4971849;28;20111;-83
2022/10/16 04:55:53;;;;;;;1999.90;999.90;;;16.20;99.90;;;;;;4971128;28;20053;-84
2022/10/16 04:58:19;;;;;;;1999.90;999.90;;;16.10;99.90;;;;;;4969270;28;20552;-85
2022/10/16 05:00:45;;;;;;;1999.90;999.90;;;16.10;99.90;;;;;;4971234;28;20023;-85
2022/10/16 05:03:12;;;;;;;1999.90;999.90;;;16.10;99.90;;;;;;4971642;28;20125;-84
2022/10/16 05:05:45;;;;;;;1999.90;999.90;;;16.10;99.90;;;;;;4971301;28;20022;-83
2022/10/16 05:08:13;;;;;;;1999.90;999.90;;;16.10;99.90;;;;;;4970663;28;20033;-85
2022/10/16 05:10:39;;;;;;;1999.90;999.90;;;16.10;99.90;;;;;;4953141;28;20027;-84
2022/10/16 05:13:04;;;;;;;1999.90;999.90;;;16.10;99.90;;;;;;4970304;28;20023;-85
2022/10/16 05:15:30;;;;;;;1999.90;999.90;;;16.10;99.90;;;;;;4970589;28;20022;-85
2022/10/16 05:17:56;;;;;;;1999.90;999.90;;;16.10;99.90;;;;;;4971675;28;20019;-85
2022/10/16 05:20:22;;;;;;;1999.90;999.90;;;16.10;99.90;;;;;;4974636;28;20034;-85
2022/10/16 05:22:48;;;;;;;1999.90;999.90;;;16.10;99.90;;;;;;4974716;28;20058;-86
2022/10/16 05:25:14;;;;;;;1999.90;999.90;;;16.10;99.90;;;;;;4953965;28;20110;-86
2022/10/16 05:27:39;;;;;;;1999.90;999.90;;;16.10;99.90;;;;;;4953329;28;20505;-86
2022/10/16 05:30:06;;;;;;;1999.90;999.90;;;16.10;99.90;;;;;;4970429;28;20030;-83
2022/10/16 05:32:31;;;;;;;1999.90;999.90;;;16.10;99.90;;;;;;4971123;28;20034;-86
2022/10/16 05:34:59;;;;;;;1999.90;999.90;;;16.10;99.90;;;;;;4969278;28;20026;-86
2022/10/16 05:37:26;;;;;;;1999.90;999.90;;;16.00;99.90;;;;;;4969899;28;20119;-86
2022/10/16 05:39:52;;;;;;;1999.90;999.90;;;16.10;99.90;;;;;;4970720;28;20022;-83
2022/10/16 05:42:18;;;;;;;1999.90;999.90;;;16.00;99.90;;;;;;4969714;28;20105;-84
2022/10/16 05:44:47;;;;;;;1999.90;999.90;;;16.10;99.90;;;;;;4969625;28;20054;-86
2022/10/16 05:47:14;;;;;;;1999.90;999.90;;;16.00;99.90;;;;;;4952664;28;20062;-87
2022/10/16 05:49:39;;;;;;;1999.90;999.90;;;16.00;99.90;;;;;;4969549;28;20033;-84
2022/10/16 05:52:05;;;;;;;1999.90;999.90;;;16.00;99.90;;;;;;4969805;28;20019;-84
2022/10/16 05:54:31;;;;;;;1999.90;999.90;;;15.90;99.90;;;;;;4970746;28;20537;-86
2022/10/16 05:56:56;;;;;;;1999.90;999.90;;;16.00;99.90;;;;;;4970479;28;20042;-83
2022/10/16 05:59:22;;;;;;;1999.90;999.90;;;15.90;99.90;;;;;;4970436;28;20288;-86
2022/10/16 06:01:47;;;;;;;1999.90;999.90;;;15.90;99.90;;;;;;4970054;28;20019;-86
2022/10/16 06:04:13;;;;;;;1999.90;999.90;;;15.90;99.90;;;;;;4969045;28;20552;-87
2022/10/16 06:06:39;;;;;;;1999.90;999.90;;;15.90;99.90;;;;;;4951882;28;20030;-84
2022/10/16 06:09:05;;;;;;;1999.90;999.90;;;15.90;99.90;;;;;;4969703;28;20031;-86
2022/10/16 06:11:32;;;;;;;1999.90;999.90;;;15.80;99.90;;;;;;4970618;28;20125;-87
2022/10/16 06:14:01;;;;;;;1999.90;999.90;;;15.80;99.90;;;;;;4969796;28;20019;-86
2022/10/16 06:16:28;;;;;;;1999.90;999.90;;;15.70;99.90;;;;;;4970443;28;20062;-87
2022/10/16 06:18:55;;;;;;;1999.90;999.90;;;15.70;99.90;;;;;;4969626;28;20058;-86
2022/10/16 06:21:26;;;;;;;1999.90;999.90;;;15.70;99.90;;;;;;4970205;28;20022;-84
2022/10/16 06:23:52;;;;;;;1999.90;999.90;;;15.70;99.90;;;;;;4972691;28;20025;-86
2022/10/16 06:26:22;;;;;;;1999.90;999.90;;;15.70;99.90;;;;;;4974195;28;20027;-87
2022/10/16 06:28:48;;;;;;;1999.90;999.90;;;15.70;99.90;;;;;;4962995;28;20106;-86
2022/10/16 06:31:14;;;;;;;1999.90;999.90;;;15.70;99.90;;;;;;4969127;28;20144;-87
2022/10/16 06:33:40;;;;;;;1999.90;999.90;;;15.80;99.90;;;;;;4951834;28;20113;-87
2022/10/16 06:36:12;;;;;;;1999.90;999.90;;;15.80;99.90;;;;;;4969504;28;20026;-84
2022/10/16 06:38:38;;;;;;;1999.90;999.90;;;15.80;99.90;;;;;;4969514;28;20397;-86
2022/10/16 06:41:05;;;;;;;1999.90;999.90;;;15.80;99.90;;;;;;4971633;28;20074;-86
2022/10/16 06:43:32;;;;;;;1999.90;999.90;;;15.80;99.90;;;;;;4974118;28;20019;-84
2022/10/16 06:45:59;;;;;;;1999.90;999.90;;;15.80;99.90;;;;;;4972278;28;20027;-86
2022/10/16 06:48:26;;;;;;;1999.90;999.90;;;15.80;99.90;;;;;;4972277;28;20034;-86
2022/10/16 06:51:18;;;;;;;1999.90;999.90;;;15.90;99.90;;;;;;4969698;28;20030;-84
2022/10/16 06:53:49;;;;;;;1999.90;999.90;;;15.90;99.90;;;;;;4960555;28;20034;-85
2022/10/16 06:56:16;;;;;;;1999.90;999.90;;;16.00;99.90;;;;;;4967926;28;20015;-83
2022/10/16 06:58:42;;;;;;;1999.90;999.90;;;16.00;99.90;;;;;;4969325;28;20034;-85
2022/10/16 07:01:09;;;;;;;1999.90;999.90;;;16.00;99.90;;;;;;4969951;28;20034;-85
2022/10/16 07:03:39;;;;;;;1999.90;999.90;;;16.00;99.90;;;;;;4968959;28;20053;-84
2022/10/16 07:06:07;;;;;;;1999.90;999.90;;;16.00;99.90;;;;;;4968547;28;20398;-85
2022/10/16 07:08:35;;;;;;;1999.90;999.90;;;16.00;99.90;;;;;;4967450;28;20461;-84
2022/10/16 07:11:02;;;;;;;1999.90;999.90;;;16.00;99.90;;;;;;4969343;28;20510;-85
2022/10/16 07:13:28;;;;;;;1999.90;999.90;;;16.00;99.90;;;;;;4969043;28;20018;-83
2022/10/16 07:15:53;;;;;;;1999.90;999.90;;;16.10;99.90;;;;;;4968215;28;20019;-84
2022/10/16 07:18:19;;;;;;;1999.90;999.90;;;16.20;99.90;;;;;;4951259;28;20030;-84
2022/10/16 07:20:44;;;;;;;1999.90;999.90;;;16.20;99.90;;;;;;4968428;28;20019;-84
2022/10/16 07:23:10;;;;;;;1999.90;999.90;;;16.30;99.90;;;;;;4968843;28;20022;-84
2022/10/16 07:25:36;;;;;;;1999.90;999.90;;;16.30;99.90;;;;;;4967720;28;20046;-84
2022/10/16 07:28:01;;;;;;;1999.90;999.90;;;16.40;99.90;;;;;;4968855;28;20053;-84
2022/10/16 07:30:27;;;;;;;1999.90;999.90;;;16.40;99.90;;;;;;4969744;28;20027;-84
2022/10/16 07:32:52;;;;;;;1999.90;999.90;;;16.50;99.90;;;;;;4972634;28;20410;-83
2022/10/16 07:35:18;;;;;;;1999.90;999.90;;;16.60;99.90;;;;;;4951636;28;20034;-84
2022/10/16 07:37:47;;;;;;;1999.90;999.90;;;16.70;99.90;;;;;;4967604;28;20133;-83
2022/10/16 07:40:13;;;;;;;1999.90;999.90;;;16.90;99.90;;;;;;4968488;28;20505;-85
2022/10/16 07:42:38;;;;;;;1999.90;999.90;;;17.00;99.90;;;;;;4968588;28;20105;-82
2022/10/16 07:45:05;;;;;;;1999.90;999.90;;;17.00;99.90;;;;;;4970178;28;20026;-85
2022/10/16 07:47:30;;;;;;;1999.90;999.90;;;17.20;99.90;;;;;;4973792;28;20027;-85
2022/10/16 07:49:56;;;;;;;1999.90;999.90;;;17.30;99.90;;;;;;4971733;28;20114;-82
2022/10/16 07:52:21;;;;;;;1999.90;999.90;;;17.70;99.90;;;;;;4969597;28;20062;-83
2022/10/16 07:54:47;;;;;;;1999.90;999.90;;;17.80;99.90;;;;;;4968051;28;20035;-82
2022/10/16 07:57:18;;;;;;;1999.90;999.90;;;17.80;99.90;;;;;;4968931;28;20029;-82
2022/10/16 07:59:45;;;;;;;1999.90;999.90;;;17.70;99.90;;;;;;4968717;28;20486;-82
2022/10/16 08:02:11;;;;;;;1999.90;999.90;;;17.60;99.90;;;;;;4968822;28;20023;-82
2022/10/16 08:04:36;;;;;;;1999.90;999.90;;;17.60;99.90;;;;;;4968712;28;20057;-82
2022/10/16 08:07:02;;;;;;;1999.90;999.90;;;17.80;99.90;;;;;;4970711;28;20029;-81
2022/10/16 08:09:28;;;;;;;1999.90;999.90;;;18.00;99.90;;;;;;4971643;28;20022;-81
2022/10/16 08:11:53;;;;;;;1999.90;999.90;;;18.10;99.90;;;;;;4971447;28;20454;-84
2022/10/16 08:14:19;;;;;;;1999.90;999.90;;;18.20;99.90;;;;;;4971882;28;20117;-81
2022/10/16 08:16:44;;;;;;;1999.90;999.90;;;18.50;99.90;;;;;;4970195;28;20040;-81
2022/10/16 08:19:10;;;;;;;1999.90;999.90;;;18.80;99.90;;;;;;4971550;28;20125;-83
2022/10/16 08:21:36;;;;;;;1999.90;999.90;;;18.80;99.90;;;;;;4971392;28;20097;-81
2022/10/16 08:24:01;;;;;;;1999.90;999.90;;;18.90;99.90;;;;;;4970820;28;20438;-81
2022/10/16 08:26:27;;;;;;;1999.90;999.90;;;18.90;99.90;;;;;;4971162;28;20037;-80
2022/10/16 08:28:54;;;;;;;1999.90;999.90;;;18.90;99.90;;;;;;4974035;28;20034;-85
2022/10/16 08:31:20;;;;;;;1999.90;999.90;;;19.00;99.90;;;;;;4976574;28;20030;-84
2022/10/16 08:33:47;;;;;;;1999.90;999.90;;;19.20;99.90;;;;;;4973958;28;20118;-80
2022/10/16 08:36:13;;;;;;;1999.90;999.90;;;19.30;99.90;;;;;;4972038;28;20015;-80
2022/10/16 08:38:39;;;;;;;1999.90;999.90;;;19.40;99.90;;;;;;4971588;28;20418;-79
2022/10/16 08:41:32;;;;;;;1999.90;999.90;;;19.60;99.90;;;;;;4973684;28;20070;-79
2022/10/16 08:43:57;;;;;;;;;;;19.40;99.90;;;;;;4976206;28;20537;-83
2022/10/16 08:46:47;;;;;;;1999.90;999.90;;;19.30;99.90;;;;;;4976074;28;19914;-83
2022/10/16 08:49:13;;;;;;;1999.90;999.90;;;20.10;99.90;;;;;;4973521;28;20109;-79
2022/10/16 08:51:40;;;;;;;1999.90;999.90;;;20.40;99.90;;;;;;4971222;28;20390;-79
2022/10/16 08:54:17;;;;;;;1999.90;999.90;;;20.60;99.90;;;;;;4970742;28;20637;-80
2022/10/16 08:56:42;;;;;;;1999.90;999.90;;;20.50;99.90;;;;;;4971005;28;20052;-82
2022/10/16 08:59:12;;;;;;;1999.90;999.90;;;20.40;99.90;;;;;;4975087;28;20027;-80
2022/10/16 09:01:45;;;;;;;1999.90;999.90;;;21.10;99.90;;;;;;4976027;28;20063;-80
2022/10/16 09:04:48;;;;;;;1999.90;999.90;;;21.90;99.90;;;;;;4970944;28;20116;-80
2022/10/16 09:07:30;;;;;;;1999.90;999.90;;;22.00;99.90;;;;;;4970403;28;20026;-80
2022/10/16 09:10:11;;;;;;;1999.90;999.90;;;21.50;99.90;;;;;;4971218;28;20025;-80
2022/10/16 09:12:54;;;;;;;1999.90;999.90;;;21.40;99.90;;;;;;4970989;28;20031;-80
2022/10/16 09:15:49;;;;;;;1999.90;999.90;;;21.70;99.90;;;;;;4975463;28;20085;-80
2022/10/16 09:18:43;;;;;;;1999.90;999.90;;;21.90;99.90;;;;;;4972142;28;20043;-79
2022/10/16 09:21:18;;;;;;;1999.90;999.90;;;21.70;99.90;;;;;;4970792;28;20029;-79
2022/10/16 09:23:43;;;;;;;1999.90;999.90;;;21.30;99.90;;;;;;4969484;28;20019;-80
2022/10/16 09:26:14;;;;;;;1999.90;999.90;;;21.10;99.90;;;;;;4955961;28;20034;-79
2022/10/16 09:28:41;;;;;;;1999.90;999.90;;;21.00;99.90;;;;;;4972591;28;20038;-80
2022/10/16 09:31:18;;;;;;;1999.90;999.90;;;21.00;99.90;;;;;;4970972;28;20038;-80
2022/10/16 09:33:46;;;;;;;1999.90;999.90;;;20.90;99.90;;;;;;4970373;28;20029;-80
2022/10/16 09:36:14;;;;;;;1999.90;999.90;;;20.70;99.90;;;;;;4952227;28;20030;-79
2022/10/16 09:38:39;;;;;;;1999.90;999.90;;;20.50;99.90;;;;;;4969451;28;20027;-80
2022/10/16 09:41:21;;;;;;;1999.90;999.90;;;20.50;99.90;;;;;;4970505;28;20018;-80
2022/10/16 09:43:56;;;;;;;1999.90;999.90;;;20.50;99.90;;;;;;4952615;28;20112;-80
2022/10/16 09:46:30;;;;;;;1999.90;999.90;;;20.50;99.90;;;;;;4969889;28;20023;-80
2022/10/16 09:48:58;;;;;;;1999.90;999.90;;;20.60;99.90;;;;;;4969937;28;20044;-80
2022/10/16 09:51:27;;;;;;;1999.90;999.90;;;20.60;99.90;;;;;;4969228;28;20579;-80
2022/10/16 09:54:08;;;;;;;1999.90;999.90;;;20.50;99.90;;;;;;4968307;28;20038;-80
2022/10/16 09:56:36;;;;;;;1999.90;999.90;;;20.50;99.90;;;;;;4969695;28;20382;-81
2022/10/16 09:59:26;;;;;;;1999.90;999.90;;;20.60;99.90;;;;;;4974809;28;20036;-81
2022/10/16 10:01:55;;;;;;;1999.90;999.90;;;20.50;99.90;;;;;;4973369;28;20019;-81
2022/10/16 10:04:23;;;;;;;1999.90;999.90;;;20.40;99.90;;;;;;4974179;28;20047;-81
2022/10/16 10:06:55;;;;;;;1999.90;999.90;;;20.50;99.90;;;;;;4963224;28;20059;-77
2022/10/16 10:09:30;;;;;;;1999.90;999.90;;;20.40;99.90;;;;;;4969953;28;20057;-79
2022/10/16 10:12:04;;;;;;;1999.90;999.90;;;20.40;99.90;;;;;;4969987;28;20030;-80
2022/10/16 10:14:39;;;;;;;1999.90;999.90;;;20.30;99.90;;;;;;4969590;28;20019;-80
2022/10/16 10:17:05;;;;;;;1999.90;999.90;;;20.40;99.90;;;;;;4970035;28;20034;-80
2022/10/16 10:19:39;;;;;;;1999.90;999.90;;;20.50;99.90;;;;;;4968899;28;20044;-80
2022/10/16 10:22:23;;;;;;;1999.90;999.90;;;20.60;99.90;;;;;;4973176;28;20386;-77
2022/10/16 10:24:57;;;;;;;1999.90;999.90;;;20.80;99.90;;;;;;4970064;28;20023;-78
2022/10/16 10:27:40;;;;;;;1999.90;999.90;;;20.80;99.90;;;;;;4955610;28;20398;-77
2022/10/16 10:30:45;;;;;;;1999.90;999.90;;;20.80;99.90;;;;;;4973841;28;20023;-77
2022/10/16 10:33:35;;;;;;;1999.90;999.90;;;20.90;99.90;;;;;;4947454;28;20402;-80
2022/10/16 10:36:13;;;;;;;1999.90;999.90;;;20.90;99.90;;;;;;4972411;28;20038;-80
2022/10/16 10:38:58;;;;;;;1999.90;999.90;;;20.90;99.90;;;;;;4969103;28;20075;-79
2022/10/16 10:41:49;;;;;;;1999.90;999.90;;;20.80;99.90;;;;;;4969176;28;20065;-78
2022/10/16 10:44:49;;;;;;;1999.90;999.90;;;20.70;99.90;;;;;;4970930;28;20105;-77
2022/10/16 10:47:18;;;;;;;1999.90;999.90;;;20.70;99.90;;;;;;4974282;28;20497;-78
2022/10/16 10:49:55;;;;;;;1999.90;999.90;;;20.70;99.90;;;;;;4971520;28;20035;-79
2022/10/16 10:52:50;;;;;;;1999.90;999.90;;;20.80;99.90;;;;;;4969207;28;20027;-79
2022/10/16 10:55:27;;;;;;;1999.90;999.90;;;21.00;99.90;;;;;;4969035;28;20030;-79
2022/10/16 10:57:53;;;;;;;1999.90;999.90;;;21.10;99.90;;;;;;4970918;28;20538;-80
2022/10/16 11:00:41;;;;;;;1999.90;999.90;;;21.20;99.90;;;;;;4972260;28;20034;-80
2022/10/16 11:03:40;;;;;;;1999.90;999.90;;;21.30;99.90;;;;;;4960446;28;20178;-80
2022/10/16 11:06:14;;;;;;;1999.90;999.90;;;21.30;99.90;;;;;;4968062;28;20031;-79
2022/10/16 11:08:52;;;;;;;1999.90;999.90;;;21.40;99.90;;;;;;4967321;28;20039;-77
2022/10/16 11:11:28;;;;;;;1999.90;999.90;;;21.40;99.90;;;;;;4967957;28;20074;-79
2022/10/16 11:13:56;;;;;;;1999.90;999.90;;;21.60;99.90;;;;;;4968349;28;20022;-79
2022/10/16 11:16:28;;;;;;;1999.90;999.90;;;21.70;99.90;;;;;;4968812;28;20038;-79
2022/10/16 11:19:13;;;;;;;1999.90;999.90;;;21.70;99.90;;;;;;4968852;28;20026;-80
2022/10/16 11:21:58;;;;;;;1999.90;999.90;;;22.00;99.90;;;;;;4967798;28;20041;-79
2022/10/16 11:24:31;;;;;;;1999.90;999.90;;;22.10;99.90;;;;;;4968834;28;20509;-80
2022/10/16 11:27:04;;;;;;;1999.90;999.90;;;22.10;99.90;;;;;;4969307;28;20390;-80
2022/10/16 11:29:32;;;;;;;1999.90;999.90;;;22.20;99.90;;;;;;4969021;28;20054;-79
2022/10/16 11:32:04;;;;;;;1999.90;999.90;;;22.10;99.90;;;;;;4971449;28;20038;-80
2022/10/16 11:34:38;;;;;;;1999.90;999.90;;;21.90;99.90;;;;;;4972579;28;20056;-79
2022/10/16 11:37:14;;;;;;;1999.90;999.90;;;21.80;99.90;;;;;;4968648;28;20034;-78
2022/10/16 11:39:41;;;;;;;1999.90;999.90;;;21.90;99.90;;;;;;4968731;28;20026;-80
2022/10/16 11:42:46;;;;;;;1999.90;999.90;;;22.00;99.90;;;;;;4971561;28;20043;-80
2022/10/16 11:45:40;;;;;;;1999.90;999.90;;;22.10;99.90;;;;;;4925378;28;20406;-80
2022/10/16 11:48:17;;;;;;;1999.90;999.90;;;22.00;99.90;;;;;;4962289;28;20042;-80
2022/10/16 11:50:46;;;;;;;1999.90;999.90;;;21.90;99.90;;;;;;4972462;28;20409;-80
2022/10/16 11:53:21;;;;;;;1999.90;999.90;;;22.00;99.90;;;;;;4971861;28;20033;-81
2022/10/16 11:55:46;;;;;;;1999.90;999.90;;;22.10;99.90;;;;;;4972398;28;20061;-81
2022/10/16 11:58:38;;;;;;;1999.90;999.90;;;22.20;99.90;;;;;;4972642;28;20506;-80
2022/10/16 12:01:42;;;;;;;1999.90;999.90;;;22.20;99.90;;;;;;4973056;28;20034;-81
2022/10/16 12:04:33;;;;;;;;;;;22.50;99.90;;;;;;4972377;28;20485;-79
2022/10/16 12:07:07;;;;;;;1999.90;999.90;;;22.50;99.90;;;;;;4971933;28;19914;-79
2022/10/16 12:09:37;;;;;;;1999.90;999.90;;;22.60;99.90;;;;;;4972317;28;20037;-80
2022/10/16 12:12:03;;;;;;;1999.90;999.90;;;22.60;99.90;;;;;;4971674;28;20080;-80
2022/10/16 12:14:32;;;;;;;1999.90;999.90;;;22.70;99.90;;;;;;4970905;28;20030;-80
2022/10/16 12:17:02;;;;;;;1999.90;999.90;;;23.00;99.90;;;;;;4971359;28;20034;-79